Time;durP1;ratioP1;P1;durP2;ratioP2;P2;SDS_P1;SDS_P2;PMS_P1;PMS_P2;Temp;Humidity;BMP_temperature;BMP_pressure;BME280_temperature;BME280_humidity;BME280_pressure;Samples;Min_cycle;Max_cycle;Signal;HPM_P1;HPM_P2
2023/08/21 00:01:02;;;;;;;5.83;3.20;;;;;;;;;;5050236;28;20229;-47
2023/08/21 00:03:29;;;;;;;8.90;3.80;;;;;;;;;;5051588;28;20268;-48
2023/08/21 00:05:55;;;;;;;9.37;3.57;;;;;;;;;;5050950;28;20611;-52
2023/08/21 00:08:22;;;;;;;8.80;3.60;;;;;;;;;;5049944;28;20256;-50
2023/08/21 00:10:49;;;;;;;7.70;3.10;;;;;;;;;;5052773;28;20169;-50
2023/08/21 00:13:15;;;;;;;7.10;2.80;;;;;;;;;;5052053;28;20212;-54
2023/08/21 00:15:41;;;;;;;8.70;3.57;;;;;;;;;;5054299;28;20525;-50
2023/08/21 00:18:07;;;;;;;6.63;3.77;;;;;;;;;;5054305;28;20174;-54
2023/08/21 00:20:33;;;;;;;8.50;3.10;;;;;;;;;;5053173;28;20389;-53
2023/08/21 00:22:59;;;;;;;6.57;3.50;;;;;;;;;;5053056;28;20254;-55
2023/08/21 00:25:25;;;;;;;7.90;3.90;;;;;;;;;;5053058;28;20474;-54
2023/08/21 00:27:51;;;;;;;6.17;3.30;;;;;;;;;;5054257;28;20200;-51
2023/08/21 00:30:17;;;;;;;5.83;3.13;;;;;;;;;;5052877;28;20220;-49
2023/08/21 00:32:43;;;;;;;10.93;3.63;;;;;;;;;;5052478;28;20529;-49
2023/08/21 00:35:09;;;;;;;7.93;3.43;;;;;;;;;;5052693;28;20200;-51
2023/08/21 00:37:35;;;;;;;3.80;3.30;;;;;;;;;;5053469;28;20471;-51
2023/08/21 00:40:01;;;;;;;6.63;3.43;;;;;;;;;;5053305;28;20262;-49
2023/08/21 00:42:28;;;;;;;9.10;4.03;;;;;;;;;;5052519;28;20432;-53
2023/08/21 00:44:54;;;;;;;7.30;3.03;;;;;;;;;;5053362;28;20336;-50
2023/08/21 00:47:20;;;;;;;7.30;3.50;;;;;;;;;;5053516;28;20280;-49
2023/08/21 00:49:46;;;;;;;7.30;3.00;;;;;;;;;;5052351;28;20182;-51
2023/08/21 00:52:13;;;;;;;4.60;3.03;;;;;;;;;;5053446;28;20165;-51
2023/08/21 00:54:39;;;;;;;6.63;3.30;;;;;;;;;;5051585;28;20307;-49
2023/08/21 00:57:06;;;;;;;5.03;3.27;;;;;;;;;;5051523;28;20405;-52
2023/08/21 00:59:32;;;;;;;5.07;3.30;;;;;;;;;;5051909;28;20178;-52
2023/08/21 01:01:58;;;;;;;5.17;3.17;;;;;;;;;;5046673;28;20520;-48
2023/08/21 01:04:24;;;;;;;4.53;2.77;;;;;;;;;;5050453;28;20184;-50
2023/08/21 01:06:51;;;;;;;7.63;2.83;;;;;;;;;;5049445;28;20162;-50
2023/08/21 01:09:27;;;;;;;7.27;3.07;;;;;;;;;;5049721;28;20408;-49
2023/08/21 01:12:07;;;;;;;6.87;3.00;;;;;;;;;;5050649;28;20266;-51
2023/08/21 01:14:37;;;;;;;7.43;2.70;;;;;;;;;;5052403;28;20227;-53
2023/08/21 01:17:07;;;;;;;6.40;3.07;;;;;;;;;;5051893;28;20257;-49
2023/08/21 01:19:37;;;;;;;8.30;2.83;;;;;;;;;;5050706;28;20213;-54
2023/08/21 01:22:04;;;;;;;8.13;3.03;;;;;;;;;;5052477;28;20266;-53
2023/08/21 01:24:30;;;;;;;7.27;3.20;;;;;;;;;;5052943;28;20268;-51
2023/08/21 01:26:56;;;;;;;8.07;3.00;;;;;;;;;;5052256;28;20260;-54
2023/08/21 01:29:22;;;;;;;6.63;3.23;;;;;;;;;;5052300;28;20165;-51
2023/08/21 01:31:52;;;;;;;6.60;3.00;;;;;;;;;;5053187;28;20181;-51
2023/08/21 01:34:18;;;;;;;4.43;2.80;;;;;;;;;;5053534;28;20174;-53
2023/08/21 01:36:45;;;;;;;6.57;3.20;;;;;;;;;;5053446;28;20417;-49
2023/08/21 01:39:11;;;;;;;7.80;2.83;;;;;;;;;;5053542;28;20208;-51
2023/08/21 01:41:37;;;;;;;7.87;3.77;;;;;;;;;;5052392;28;20319;-53
2023/08/21 01:44:03;;;;;;;5.47;2.70;;;;;;;;;;5052763;28;20268;-51
2023/08/21 01:46:29;;;;;;;8.87;3.90;;;;;;;;;;5053263;28;20177;-52
2023/08/21 01:48:55;;;;;;;5.77;3.10;;;;;;;;;;5052157;28;20451;-51
2023/08/21 01:51:21;;;;;;;5.93;2.40;;;;;;;;;;5051885;28;20249;-49
2023/08/21 01:53:48;;;;;;;8.03;3.23;;;;;;;;;;5052994;28;20599;-48
2023/08/21 01:56:14;;;;;;;6.37;3.30;;;;;;;;;;5053654;28;20193;-51
2023/08/21 01:58:41;;;;;;;5.50;2.60;;;;;;;;;;5052442;28;20166;-52
2023/08/21 02:01:07;;;;;;;6.43;3.30;;;;;;;;;;5052133;28;20225;-53
2023/08/21 02:03:33;;;;;;;8.37;3.27;;;;;;;;;;5053908;28;20270;-55
2023/08/21 02:06:00;;;;;;;7.40;3.23;;;;;;;;;;5053836;28;20180;-53
2023/08/21 02:08:32;;;;;;;7.53;3.83;;;;;;;;;;5053122;28;20519;-50
2023/08/21 02:10:59;;;;;;;7.43;2.93;;;;;;;;;;5052022;28;20177;-51
2023/08/21 02:13:25;;;;;;;7.03;2.87;;;;;;;;;;5051905;28;20213;-50
2023/08/21 02:15:51;;;;;;;5.03;2.83;;;;;;;;;;5051571;28;20554;-50
2023/08/21 02:18:17;;;;;;;8.43;4.30;;;;;;;;;;5049982;28;20173;-52
2023/08/21 02:20:43;;;;;;;4.87;3.23;;;;;;;;;;5048651;28;20180;-50
2023/08/21 02:23:09;;;;;;;6.63;3.10;;;;;;;;;;5048787;28;20267;-53
2023/08/21 02:25:35;;;;;;;6.23;3.27;;;;;;;;;;5046608;28;20402;-50
2023/08/21 02:28:03;;;;;;;5.37;2.77;;;;;;;;;;5047634;28;20629;-52
2023/08/21 02:30:29;;;;;;;5.87;3.00;;;;;;;;;;5047156;28;20166;-53
2023/08/21 02:32:56;;;;;;;10.27;3.63;;;;;;;;;;5050462;28;20181;-53
2023/08/21 02:35:22;;;;;;;8.30;3.47;;;;;;;;;;5050105;28;20469;-53
2023/08/21 02:37:48;;;;;;;8.53;3.40;;;;;;;;;;5049474;28;20169;-53
2023/08/21 02:40:14;;;;;;;5.33;3.03;;;;;;;;;;5051634;28;20177;-52
2023/08/21 02:42:42;;;;;;;6.60;2.93;;;;;;;;;;5051389;28;20265;-50
2023/08/21 02:45:08;;;;;;;5.73;2.83;;;;;;;;;;5051038;28;20169;-52
2023/08/21 02:47:38;;;;;;;4.63;2.50;;;;;;;;;;5050346;28;20410;-51
2023/08/21 02:50:08;;;;;;;7.30;3.10;;;;;;;;;;5050317;28;20409;-49
2023/08/21 02:52:34;;;;;;;6.73;3.30;;;;;;;;;;5049695;28;20514;-47
2023/08/21 02:55:00;;;;;;;9.87;3.33;;;;;;;;;;5050495;28;20338;-51
2023/08/21 02:57:27;;;;;;;6.10;2.93;;;;;;;;;;5048169;28;20177;-54
2023/08/21 02:59:53;;;;;;;6.03;2.80;;;;;;;;;;5047790;28;20264;-50
2023/08/21 03:02:19;;;;;;;8.17;3.37;;;;;;;;;;5047689;28;20620;-49
2023/08/21 03:04:45;;;;;;;7.03;2.90;;;;;;;;;;5049539;28;20458;-53
2023/08/21 03:07:11;;;;;;;5.10;3.30;;;;;;;;;;5048727;28;20173;-51
2023/08/21 03:09:38;;;;;;;6.93;3.17;;;;;;;;;;5048638;28;20173;-48
2023/08/21 03:12:04;;;;;;;8.80;2.97;;;;;;;;;;5047920;28;20284;-50
2023/08/21 03:14:30;;;;;;;7.40;4.37;;;;;;;;;;5048023;28;20226;-51
2023/08/21 03:16:56;;;;;;;7.03;2.93;;;;;;;;;;5049248;28;20292;-49
2023/08/21 03:19:22;;;;;;;6.77;2.73;;;;;;;;;;5049360;28;20363;-51
2023/08/21 03:21:48;;;;;;;8.20;3.87;;;;;;;;;;5051860;28;20214;-49
2023/08/21 03:24:14;;;;;;;6.90;3.20;;;;;;;;;;5055993;28;20169;-49
2023/08/21 03:26:40;;;;;;;6.40;3.30;;;;;;;;;;5053999;28;20316;-50
2023/08/21 03:29:06;;;;;;;5.77;3.30;;;;;;;;;;5053700;28;20173;-51
2023/08/21 03:31:32;;;;;;;10.30;4.20;;;;;;;;;;5050936;28;20189;-53
2023/08/21 03:33:59;;;;;;;7.87;3.60;;;;;;;;;;5050213;28;20177;-51
2023/08/21 03:36:30;;;;;;;7.50;3.13;;;;;;;;;;5050195;28;20177;-55
2023/08/21 03:39:01;;;;;;;6.47;2.97;;;;;;;;;;5049597;28;20169;-53
2023/08/21 03:41:27;;;;;;;6.93;3.20;;;;;;;;;;5048309;28;20375;-50
2023/08/21 03:43:53;;;;;;;7.30;3.60;;;;;;;;;;5049596;28;20373;-50
2023/08/21 03:46:19;;;;;;;10.67;3.73;;;;;;;;;;5049353;28;20234;-54
2023/08/21 03:48:45;;;;;;;7.47;3.63;;;;;;;;;;5052024;28;20154;-48
2023/08/21 03:51:12;;;;;;;8.60;3.63;;;;;;;;;;5051467;28;20266;-52
2023/08/21 03:53:38;;;;;;;8.00;3.20;;;;;;;;;;5051827;28;20304;-53
2023/08/21 03:56:04;;;;;;;13.50;4.10;;;;;;;;;;5052878;28;20436;-48
2023/08/21 03:58:30;;;;;;;8.23;3.60;;;;;;;;;;5053981;28;20280;-48
2023/08/21 04:00:56;;;;;;;8.43;3.80;;;;;;;;;;5052636;28;20229;-54
2023/08/21 04:03:22;;;;;;;11.27;3.63;;;;;;;;;;5050714;28;20334;-50
2023/08/21 04:05:49;;;;;;;10.00;3.67;;;;;;;;;;5050580;28;20181;-50
2023/08/21 04:08:15;;;;;;;8.23;3.50;;;;;;;;;;5052196;28;20491;-48
2023/08/21 04:10:41;;;;;;;9.90;3.57;;;;;;;;;;5050386;28;20456;-53
2023/08/21 04:13:08;;;;;;;5.57;3.30;;;;;;;;;;5048382;28;20464;-51
2023/08/21 04:15:37;;;;;;;9.00;3.30;;;;;;;;;;5050024;28;20352;-49
2023/08/21 04:18:03;;;;;;;5.90;3.60;;;;;;;;;;5051815;28;20704;-52
2023/08/21 04:20:29;;;;;;;8.97;3.40;;;;;;;;;;5052201;28;20371;-51
2023/08/21 04:22:56;;;;;;;4.03;2.70;;;;;;;;;;5053258;28;20205;-50
2023/08/21 04:25:22;;;;;;;6.47;3.40;;;;;;;;;;5052690;28;20534;-49
2023/08/21 04:27:48;;;;;;;4.23;2.73;;;;;;;;;;5051913;28;20177;-50
2023/08/21 04:30:15;;;;;;;5.93;2.87;;;;;;;;;;5049375;28;20367;-55
2023/08/21 04:32:41;;;;;;;7.10;3.13;;;;;;;;;;5051722;28;20173;-52
2023/08/21 04:35:08;;;;;;;5.80;3.07;;;;;;;;;;5051086;28;20422;-51
2023/08/21 04:37:34;;;;;;;9.37;4.03;;;;;;;;;;5050244;28;20181;-54
2023/08/21 04:40:01;;;;;;;6.47;3.87;;;;;;;;;;5051580;28;20180;-50
2023/08/21 04:42:27;;;;;;;5.83;3.17;;;;;;;;;;5051045;28;20473;-54
2023/08/21 04:44:53;;;;;;;9.20;3.10;;;;;;;;;;5050312;28;20230;-52
2023/08/21 04:47:20;;;;;;;7.70;3.13;;;;;;;;;;5049992;28;20189;-48
2023/08/21 04:49:46;;;;;;;6.20;3.33;;;;;;;;;;5050101;28;20561;-51
2023/08/21 04:52:12;;;;;;;7.03;3.20;;;;;;;;;;5048738;28;20248;-50
2023/08/21 04:54:38;;;;;;;8.10;3.90;;;;;;;;;;5047128;28;20169;-54
2023/08/21 04:57:04;;;;;;;9.13;4.00;;;;;;;;;;5045363;28;20180;-48
2023/08/21 04:59:30;;;;;;;10.30;3.97;;;;;;;;;;5045670;28;20447;-48
2023/08/21 05:01:57;;;;;;;7.27;3.83;;;;;;;;;;5043486;28;20663;-48
2023/08/21 05:04:23;;;;;;;9.33;3.80;;;;;;;;;;5043363;28;20174;-51
2023/08/21 05:06:49;;;;;;;6.80;3.60;;;;;;;;;;5044443;28;20543;-50
2023/08/21 05:09:15;;;;;;;7.10;3.60;;;;;;;;;;5046486;28;20234;-50
2023/08/21 05:11:41;;;;;;;6.43;3.10;;;;;;;;;;5046906;28;20429;-51
2023/08/21 05:14:07;;;;;;;9.50;3.27;;;;;;;;;;5047117;28;20510;-56
2023/08/21 05:16:34;;;;;;;9.73;3.83;;;;;;;;;;5047265;28;20619;-53
2023/08/21 05:19:00;;;;;;;7.83;3.83;;;;;;;;;;5046590;28;20208;-51
2023/08/21 05:21:25;;;;;;;9.17;3.20;;;;;;;;;;5045191;28;20205;-49
2023/08/21 05:23:52;;;;;;;6.87;3.20;;;;;;;;;;5047354;28;20636;-54
2023/08/21 05:26:18;;;;;;;9.87;4.33;;;;;;;;;;5047534;28;20172;-53
2023/08/21 05:28:44;;;;;;;12.73;3.93;;;;;;;;;;5047112;28;20323;-52
2023/08/21 05:31:10;;;;;;;8.47;3.60;;;;;;;;;;5048980;28;20201;-52
2023/08/21 05:33:36;;;;;;;10.50;4.20;;;;;;;;;;5050335;28;20239;-54
2023/08/21 05:36:02;;;;;;;12.37;2.87;;;;;;;;;;5050338;28;20181;-50
2023/08/21 05:38:28;;;;;;;6.43;3.50;;;;;;;;;;5049086;28;20177;-52
2023/08/21 05:40:54;;;;;;;7.07;3.10;;;;;;;;;;5051077;28;20576;-52
2023/08/21 05:43:20;;;;;;;11.63;3.47;;;;;;;;;;5050775;28;20170;-52
2023/08/21 05:45:48;;;;;;;7.77;3.00;;;;;;;;;;5049450;28;20201;-50
2023/08/21 05:48:14;;;;;;;7.33;3.13;;;;;;;;;;5049950;28;20166;-50
2023/08/21 05:50:40;;;;;;;11.73;3.93;;;;;;;;;;5050897;28;20433;-48
2023/08/21 05:53:07;;;;;;;10.57;2.73;;;;;;;;;;5051621;28;20260;-49
2023/08/21 05:55:34;;;;;;;8.13;2.30;;;;;;;;;;5047471;28;20561;-52
2023/08/21 05:58:00;;;;;;;7.57;2.63;;;;;;;;;;5048601;28;20174;-51
2023/08/21 06:00:26;;;;;;;10.57;3.17;;;;;;;;;;5046929;28;20178;-48
2023/08/21 06:02:52;;;;;;;9.57;3.60;;;;;;;;;;5048756;28;20205;-51
2023/08/21 06:05:18;;;;;;;9.73;2.93;;;;;;;;;;5048492;28;20170;-50
2023/08/21 06:07:44;;;;;;;6.17;2.70;;;;;;;;;;5046174;28;20169;-53
2023/08/21 06:10:14;;;;;;;7.63;2.90;;;;;;;;;;5046950;28;20161;-49
2023/08/21 06:12:41;;;;;;;10.10;2.50;;;;;;;;;;5047651;28;20437;-49
2023/08/21 06:15:10;;;;;;;7.90;2.33;;;;;;;;;;5044839;28;20181;-48
2023/08/21 06:17:37;;;;;;;5.63;2.33;;;;;;;;;;5042631;28;20458;-49
2023/08/21 06:20:05;;;;;;;9.77;2.53;;;;;;;;;;5043890;28;20537;-51
2023/08/21 06:22:32;;;;;;;10.73;2.67;;;;;;;;;;5042416;28;20240;-50
2023/08/21 06:24:58;;;;;;;6.50;2.20;;;;;;;;;;5043549;28;20201;-52
2023/08/21 06:27:24;;;;;;;10.20;3.10;;;;;;;;;;5041808;28;20301;-53
2023/08/21 06:29:50;;;;;;;8.10;2.10;;;;;;;;;;5044385;28;20219;-49
2023/08/21 06:32:16;;;;;;;7.97;2.50;;;;;;;;;;5045937;28;20242;-52
2023/08/21 06:34:42;;;;;;;9.90;3.87;;;;;;;;;;5045313;28;20181;-51
2023/08/21 06:37:09;;;;;;;8.10;2.33;;;;;;;;;;5044499;28;20220;-51
2023/08/21 06:39:35;;;;;;;6.43;2.60;;;;;;;;;;5046734;28;20193;-48
2023/08/21 06:42:01;;;;;;;8.33;2.57;;;;;;;;;;5046691;28;20270;-49
2023/08/21 06:44:28;;;;;;;10.50;2.60;;;;;;;;;;5045617;28;20232;-53
2023/08/21 06:46:54;;;;;;;8.37;2.00;;;;;;;;;;5048309;28;20192;-48
2023/08/21 06:49:20;;;;;;;5.70;1.93;;;;;;;;;;5046755;28;20174;-48
2023/08/21 06:51:47;;;;;;;8.83;2.00;;;;;;;;;;5044638;28;20465;-51
2023/08/21 06:54:13;;;;;;;7.13;1.67;;;;;;;;;;5045286;28;20199;-48
2023/08/21 06:56:38;;;;;;;9.23;1.90;;;;;;;;;;5042804;28;20600;-50
2023/08/21 06:59:04;;;;;;;8.90;2.43;;;;;;;;;;5043994;28;20690;-49
2023/08/21 07:01:31;;;;;;;6.97;1.60;;;;;;;;;;5044188;28;20516;-50
2023/08/21 07:03:57;;;;;;;5.87;2.00;;;;;;;;;;5043560;28;20272;-51
2023/08/21 07:06:23;;;;;;;4.50;1.73;;;;;;;;;;5043102;28;20488;-49
2023/08/21 07:08:49;;;;;;;6.10;2.03;;;;;;;;;;5042177;28;20165;-52
2023/08/21 07:11:17;;;;;;;5.60;2.30;;;;;;;;;;5042274;28;20550;-52
2023/08/21 07:13:43;;;;;;;10.53;2.00;;;;;;;;;;5042477;28;20183;-52
2023/08/21 07:16:09;;;;;;;4.40;1.40;;;;;;;;;;5038897;28;20239;-50
2023/08/21 07:18:36;;;;;;;7.77;2.30;;;;;;;;;;5038025;28;20235;-50
2023/08/21 07:21:04;;;;;;;7.10;1.60;;;;;;;;;;5039446;28;20204;-51
2023/08/21 07:23:30;;;;;;;9.53;1.73;;;;;;;;;;5041633;28;20170;-51
2023/08/21 07:25:56;;;;;;;9.70;2.30;;;;;;;;;;5040964;28;20289;-51
2023/08/21 07:28:22;;;;;;;3.87;1.50;;;;;;;;;;5041796;28;20550;-50
2023/08/21 07:30:48;;;;;;;4.60;1.90;;;;;;;;;;5044691;28;20609;-51
2023/08/21 07:33:15;;;;;;;4.33;1.23;;;;;;;;;;5044495;28;20246;-47
2023/08/21 07:35:40;;;;;;;5.17;1.30;;;;;;;;;;5045473;28;20170;-48
2023/08/21 07:38:07;;;;;;;4.33;1.43;;;;;;;;;;5045505;28;20486;-47
2023/08/21 07:40:33;;;;;;;6.93;1.93;;;;;;;;;;5045063;28;20266;-50
2023/08/21 07:42:59;;;;;;;3.90;1.70;;;;;;;;;;5046051;28;20205;-49
2023/08/21 07:45:26;;;;;;;7.90;1.60;;;;;;;;;;5044712;28;20206;-49
2023/08/21 07:47:52;;;;;;;4.67;1.70;;;;;;;;;;5044529;28;20173;-47
2023/08/21 07:50:19;;;;;;;3.70;1.60;;;;;;;;;;5044089;28;20169;-49
2023/08/21 07:52:45;;;;;;;4.40;1.20;;;;;;;;;;5045088;28;20185;-47
2023/08/21 07:55:11;;;;;;;6.90;1.73;;;;;;;;;;5044191;28;20280;-47
2023/08/21 07:57:38;;;;;;;6.07;1.37;;;;;;;;;;5045047;28;20178;-47
2023/08/21 08:00:08;;;;;;;4.60;1.60;;;;;;;;;;5043360;28;20534;-50
2023/08/21 08:02:34;;;;;;;1.83;1.20;;;;;;;;;;5040950;28;20361;-47
2023/08/21 08:05:00;;;;;;;6.70;1.93;;;;;;;;;;5044870;28;20243;-47
2023/08/21 08:07:26;;;;;;;3.93;1.80;;;;;;;;;;5042523;28;20535;-49
2023/08/21 08:09:53;;;;;;;4.77;1.30;;;;;;;;;;5042810;28;20181;-49
2023/08/21 08:12:19;;;;;;;4.47;1.30;;;;;;;;;;5045136;28;20255;-52
2023/08/21 08:14:45;;;;;;;8.33;1.60;;;;;;;;;;5046954;28;20181;-50
2023/08/21 08:17:11;;;;;;;7.70;1.50;;;;;;;;;;5048211;28;20204;-49
2023/08/21 08:19:37;;;;;;;4.90;1.20;;;;;;;;;;5047203;28;20177;-51
2023/08/21 08:22:03;;;;;;;7.00;1.83;;;;;;;;;;5046675;28;20205;-49
2023/08/21 08:24:29;;;;;;;4.60;2.00;;;;;;;;;;5046481;28;20169;-47
2023/08/21 08:26:55;;;;;;;4.70;1.60;;;;;;;;;;5047658;28;20452;-51
2023/08/21 08:29:21;;;;;;;5.50;1.33;;;;;;;;;;5048401;28;20534;-53
2023/08/21 08:31:47;;;;;;;3.63;1.50;;;;;;;;;;5045001;28;20181;-50
2023/08/21 08:34:13;;;;;;;3.23;1.30;;;;;;;;;;5045618;28;20184;-50
2023/08/21 08:36:41;;;;;;;4.80;1.73;;;;;;;;;;5046080;28;20182;-49
2023/08/21 08:39:07;;;;;;;3.73;1.20;;;;;;;;;;5045449;28;20464;-48
2023/08/21 08:41:36;;;;;;;7.10;1.90;;;;;;;;;;5045246;28;20213;-49
2023/08/21 08:44:03;;;;;;;3.50;1.30;;;;;;;;;;5044966;28;20672;-48
2023/08/21 08:46:30;;;;;;;2.50;1.17;;;;;;;;;;5043582;28;20178;-49
2023/08/21 08:48:56;;;;;;;3.07;1.30;;;;;;;;;;5045277;28;20203;-49
2023/08/21 08:51:25;;;;;;;5.77;1.73;;;;;;;;;;5044882;28;20250;-50
2023/08/21 08:53:51;;;;;;;3.60;1.50;;;;;;;;;;5043167;28;20227;-54
2023/08/21 08:56:17;;;;;;;2.60;1.10;;;;;;;;;;5050265;28;20174;-47
2023/08/21 08:58:44;;;;;;;4.40;1.53;;;;;;;;;;5049985;28;20200;-52
2023/08/21 09:01:13;;;;;;;2.83;1.00;;;;;;;;;;5049150;28;20286;-52
2023/08/21 09:03:40;;;;;;;2.90;1.20;;;;;;;;;;5047711;28;20736;-51
2023/08/21 09:06:06;;;;;;;4.17;1.33;;;;;;;;;;5047900;28;20794;-52
2023/08/21 09:08:34;;;;;;;5.73;1.53;;;;;;;;;;5048017;28;20227;-53
2023/08/21 09:11:04;;;;;;;5.70;1.40;;;;;;;;;;5050923;28;20173;-52
2023/08/21 09:13:32;;;;;;;2.90;1.20;;;;;;;;;;5051185;28;20169;-50
2023/08/21 09:15:59;;;;;;;3.87;1.17;;;;;;;;;;5050236;28;20227;-47
2023/08/21 09:18:26;;;;;;;4.10;1.27;;;;;;;;;;5052320;28;20173;-53
2023/08/21 09:20:52;;;;;;;4.63;0.97;;;;;;;;;;5052633;28;20173;-48
2023/08/21 09:23:19;;;;;;;7.53;1.40;;;;;;;;;;5050988;28;20173;-52
2023/08/21 09:25:49;;;;;;;4.50;1.50;;;;;;;;;;5051659;28;20169;-52
2023/08/21 09:28:22;;;;;;;3.93;1.20;;;;;;;;;;5050251;28;20184;-49
2023/08/21 09:30:53;;;;;;;6.27;1.37;;;;;;;;;;5050688;28;20269;-50
2023/08/21 09:33:20;;;;;;;5.67;1.30;;;;;;;;;;5049870;28;20169;-51
2023/08/21 09:35:47;;;;;;;3.20;1.33;;;;;;;;;;5050734;28;20226;-53
2023/08/21 09:38:16;;;;;;;4.63;1.47;;;;;;;;;;5051346;28;20181;-51
2023/08/21 09:40:43;;;;;;;4.50;1.07;;;;;;;;;;5051611;28;20264;-49
2023/08/21 09:43:13;;;;;;;3.83;1.00;;;;;;;;;;5050409;28;20201;-50
2023/08/21 09:45:39;;;;;;;9.43;1.17;;;;;;;;;;5051929;28;20391;-53
2023/08/21 09:48:06;;;;;;;4.00;1.57;;;;;;;;;;5050511;28;20177;-49
2023/08/21 09:50:32;;;;;;;4.57;1.20;;;;;;;;;;5051317;28;20474;-47
2023/08/21 09:52:58;;;;;;;3.63;1.10;;;;;;;;;;5053045;28;20549;-47
2023/08/21 09:55:31;;;;;;;6.17;1.00;;;;;;;;;;5051537;28;20183;-51
2023/08/21 09:57:59;;;;;;;6.53;1.37;;;;;;;;;;5052944;28;20173;-50
2023/08/21 10:00:32;;;;;;;2.60;1.07;;;;;;;;;;5050993;28;20168;-52
2023/08/21 10:03:05;;;;;;;2.77;0.90;;;;;;;;;;5049791;28;20544;-50
2023/08/21 10:05:32;;;;;;;7.47;1.70;;;;;;;;;;5050405;28;20169;-52
2023/08/21 10:08:00;;;;;;;3.87;1.20;;;;;;;;;;5050044;28;20879;-54
2023/08/21 10:10:26;;;;;;;2.43;1.13;;;;;;;;;;5050245;28;20185;-49
2023/08/21 10:12:53;;;;;;;6.93;1.40;;;;;;;;;;5048557;28;20729;-51
2023/08/21 10:15:20;;;;;;;2.67;1.03;;;;;;;;;;5050325;28;20619;-53
2023/08/21 10:17:46;;;;;;;3.40;1.17;;;;;;;;;;5051120;28;20291;-50
2023/08/21 10:20:12;;;;;;;4.63;1.10;;;;;;;;;;5051468;28;20814;-55
2023/08/21 10:22:39;;;;;;;3.07;1.00;;;;;;;;;;5048739;28;20217;-56
2023/08/21 10:25:14;;;;;;;2.40;1.10;;;;;;;;;;5048084;28;20169;-53
2023/08/21 10:27:42;;;;;;;3.50;1.20;;;;;;;;;;5048398;28;20254;-56
2023/08/21 10:30:25;;;;;;;5.03;1.37;;;;;;;;;;5047209;28;20177;-51
2023/08/21 10:32:52;;;;;;;4.70;1.20;;;;;;;;;;5047307;28;20180;-54
2023/08/21 10:35:19;;;;;;;6.20;1.20;;;;;;;;;;5047230;28;20226;-50
2023/08/21 10:38:04;;;;;;;4.57;1.03;;;;;;;;;;5046740;28;20177;-52
2023/08/21 10:40:30;;;;;;;2.53;1.50;;;;;;;;;;5047480;28;20177;-53
2023/08/21 10:42:56;;;;;;;4.57;0.93;;;;;;;;;;5047692;28;20209;-51
2023/08/21 10:45:22;;;;;;;3.70;1.33;;;;;;;;;;5032040;28;20781;-54
2023/08/21 10:47:57;;;;;;;2.80;0.80;;;;;;;;;;5047759;28;20165;-56
2023/08/21 10:50:24;;;;;;;2.90;1.30;;;;;;;;;;5048508;28;20161;-55
2023/08/21 10:52:51;;;;;;;2.60;1.00;;;;;;;;;;5047377;28;20466;-52
2023/08/21 10:55:20;;;;;;;5.60;1.50;;;;;;;;;;5047462;28;20173;-54
2023/08/21 10:57:48;;;;;;;2.43;1.00;;;;;;;;;;5048096;28;20161;-53
2023/08/21 11:00:15;;;;;;;3.30;1.03;;;;;;;;;;5046928;28;20177;-52
2023/08/21 11:02:45;;;;;;;3.20;1.13;;;;;;;;;;5045720;28;20263;-52
2023/08/21 11:05:12;;;;;;;4.40;1.13;;;;;;;;;;5046377;28;20184;-50
2023/08/21 11:07:45;;;;;;;3.13;0.80;;;;;;;;;;5047233;28;20557;-55
2023/08/21 11:10:13;;;;;;;3.57;0.70;;;;;;;;;;5047572;28;20235;-53
2023/08/21 11:12:50;;;;;;;3.87;1.00;;;;;;;;;;5047571;28;20209;-55
2023/08/21 11:15:17;;;;;;;2.17;0.70;;;;;;;;;;5049658;28;20179;-52
2023/08/21 11:17:43;;;;;;;3.63;1.23;;;;;;;;;;5049427;28;20173;-53
2023/08/21 11:20:09;;;;;;;2.78;1.35;;;;;;;;;;5051318;28;20172;-56
2023/08/21 11:22:36;;;;;;;3.63;1.02;;;;;;;;;;5049619;28;20209;-56
2023/08/21 11:25:03;;;;;;;1.95;0.75;;;;;;;;;;5048951;28;20180;-52
2023/08/21 11:27:29;;;;;;;2.45;0.70;;;;;;;;;;5048999;28;20165;-52
2023/08/21 11:29:56;;;;;;;3.08;1.30;;;;;;;;;;5047680;28;20554;-54
2023/08/21 11:32:23;;;;;;;1.73;0.77;;;;;;;;;;5047544;28;20180;-56
2023/08/21 11:34:50;;;;;;;3.03;1.08;;;;;;;;;;5048288;28;20561;-53
2023/08/21 11:37:21;;;;;;;1.98;0.70;;;;;;;;;;5048283;28;20192;-57
2023/08/21 11:39:57;;;;;;;2.65;1.13;;;;;;;;;;5048892;28;20586;-55
2023/08/21 11:42:33;;;;;;;2.47;0.80;;;;;;;;;;5046884;28;20219;-57
2023/08/21 11:45:00;;;;;;;3.17;1.05;;;;;;;;;;5050054;28;20235;-55
2023/08/21 11:47:32;;;;;;;2.45;0.82;;;;;;;;;;5051499;28;20169;-55
2023/08/21 11:50:02;;;;;;;2.47;0.98;;;;;;;;;;5050360;28;20165;-57
2023/08/21 11:52:31;;;;;;;3.15;1.30;;;;;;;;;;5048979;28;20206;-57
2023/08/21 11:54:58;;;;;;;2.90;1.23;;;;;;;;;;5050649;28;20260;-56
2023/08/21 11:57:24;;;;;;;2.83;1.02;;;;;;;;;;5051262;28;20460;-56
2023/08/21 11:59:57;;;;;;;3.85;1.20;;;;;;;;;;5052448;28;20740;-55
2023/08/21 12:02:25;;;;;;;3.67;1.20;;;;;;;;;;5049869;28;20256;-55
2023/08/21 12:05:07;;;;;;;4.90;1.00;;;;;;;;;;5049989;28;20220;-56
2023/08/21 12:07:33;;;;;;;2.83;0.90;;;;;;;;;;5048277;28;20212;-57
2023/08/21 12:10:00;;;;;;;2.60;1.00;;;;;;;;;;5047797;28;20161;-57
2023/08/21 12:12:27;;;;;;;1.98;0.98;;;;;;;;;;5048449;28;20227;-53
2023/08/21 12:14:53;;;;;;;2.58;1.00;;;;;;;;;;5047916;28;20175;-57
2023/08/21 12:17:19;;;;;;;1.40;0.90;;;;;;;;;;5047435;28;20560;-55
2023/08/21 12:19:45;;;;;;;2.80;0.90;;;;;;;;;;5048022;28;20177;-54
2023/08/21 12:22:12;;;;;;;2.38;1.02;;;;;;;;;;5049791;28;20205;-56
2023/08/21 12:24:38;;;;;;;3.30;1.00;;;;;;;;;;5050343;28;20213;-52
2023/08/21 12:27:04;;;;;;;3.30;0.95;;;;;;;;;;5049912;28;20165;-53
2023/08/21 12:29:31;;;;;;;1.80;1.00;;;;;;;;;;5050749;28;20161;-53
2023/08/21 12:31:58;;;;;;;2.20;0.80;;;;;;;;;;5049311;28;20219;-55
2023/08/21 12:34:24;;;;;;;4.32;1.10;;;;;;;;;;5048912;28;20786;-56
2023/08/21 12:36:51;;;;;;;3.50;0.90;;;;;;;;;;5049027;28;20173;-54
2023/08/21 12:39:18;;;;;;;2.33;0.85;;;;;;;;;;5047317;28;20239;-55
2023/08/21 12:41:44;;;;;;;2.20;1.08;;;;;;;;;;5048180;28;20305;-51
2023/08/21 12:44:10;;;;;;;2.17;1.10;;;;;;;;;;5048446;28;20263;-49
2023/08/21 12:46:36;;;;;;;2.03;1.00;;;;;;;;;;5048407;28;20447;-54
2023/08/21 12:49:04;;;;;;;2.42;1.02;;;;;;;;;;5049702;28;20173;-53
2023/08/21 12:51:30;;;;;;;1.88;1.10;;;;;;;;;;5046999;28;20231;-53
2023/08/21 12:53:56;;;;;;;1.10;0.60;;;;;;;;;;5047462;28;20185;-51
2023/08/21 12:56:22;;;;;;;3.40;1.20;;;;;;;;;;5046988;28;20173;-49
2023/08/21 12:58:49;;;;;;;4.75;1.10;;;;;;;;;;5047623;28;20243;-55
2023/08/21 13:01:15;;;;;;;1.55;0.95;;;;;;;;;;5047363;28;20832;-50
2023/08/21 13:03:47;;;;;;;2.08;1.00;;;;;;;;;;5049154;28;20181;-48
2023/08/21 13:06:14;;;;;;;2.72;0.90;;;;;;;;;;5052475;28;20679;-53
2023/08/21 13:08:40;;;;;;;2.65;1.00;;;;;;;;;;5048742;28;20181;-53
2023/08/21 13:11:06;;;;;;;2.90;1.08;;;;;;;;;;5048703;28;20280;-51
2023/08/21 13:13:34;;;;;;;1.83;0.90;;;;;;;;;;5049332;28;20166;-53
2023/08/21 13:16:02;;;;;;;3.53;0.90;;;;;;;;;;5048003;28;20169;-55
2023/08/21 13:18:28;;;;;;;1.75;1.00;;;;;;;;;;5045009;28;20177;-52
2023/08/21 13:20:55;;;;;;;2.55;1.00;;;;;;;;;;5046069;28;20173;-53
2023/08/21 13:23:21;;;;;;;2.75;1.17;;;;;;;;;;5046277;28;20219;-50
2023/08/21 13:25:47;;;;;;;2.45;0.93;;;;;;;;;;5042056;28;20471;-49
2023/08/21 13:28:13;;;;;;;2.90;0.90;;;;;;;;;;5039328;28;20285;-53
2023/08/21 13:30:39;;;;;;;2.17;1.02;;;;;;;;;;5039427;28;20376;-51
2023/08/21 13:33:06;;;;;;;1.05;0.73;;;;;;;;;;5040374;28;20201;-50
2023/08/21 13:35:32;;;;;;;2.45;1.10;;;;;;;;;;5038853;28;20170;-53
2023/08/21 13:37:58;;;;;;;3.00;0.90;;;;;;;;;;5038919;28;20387;-48
2023/08/21 13:40:25;;;;;;;2.30;0.80;;;;;;;;;;5040743;28;20169;-50
2023/08/21 13:42:51;;;;;;;3.17;0.95;;;;;;;;;;5042051;28;20561;-55
2023/08/21 13:45:18;;;;;;;4.90;1.13;;;;;;;;;;5045118;28;20173;-50
2023/08/21 13:47:49;;;;;;;3.22;1.20;;;;;;;;;;5040052;28;20388;-49
2023/08/21 13:50:15;;;;;;;1.20;0.80;;;;;;;;;;5039518;28;20386;-52
2023/08/21 13:52:42;;;;;;;1.48;0.90;;;;;;;;;;5040622;28;20173;-50
2023/08/21 13:55:09;;;;;;;2.10;0.90;;;;;;;;;;5040643;28;20445;-50
2023/08/21 13:57:35;;;;;;;1.88;1.20;;;;;;;;;;5037523;28;20818;-51
2023/08/21 14:00:07;;;;;;;4.00;1.35;;;;;;;;;;5037465;28;20173;-53
2023/08/21 14:02:36;;;;;;;2.95;1.17;;;;;;;;;;5036934;28;20471;-52
2023/08/21 14:05:06;;;;;;;1.33;0.90;;;;;;;;;;5039711;28;20262;-52
2023/08/21 14:07:33;;;;;;;2.53;1.10;;;;;;;;;;5039271;28;20205;-49
2023/08/21 14:10:00;;;;;;;1.88;1.30;;;;;;;;;;5040569;28;20738;-49
2023/08/21 14:12:28;;;;;;;2.63;1.10;;;;;;;;;;5040483;28;20177;-49
2023/08/21 14:14:54;;;;;;;1.38;1.20;;;;;;;;;;5039721;28;20193;-51
2023/08/21 14:17:20;;;;;;;2.63;1.10;;;;;;;;;;5039824;28;20212;-50
2023/08/21 14:19:46;;;;;;;1.83;0.93;;;;;;;;;;5044795;28;20209;-51
2023/08/21 14:22:12;;;;;;;1.58;1.23;;;;;;;;;;5048647;28;20609;-53
2023/08/21 14:24:38;;;;;;;2.35;1.20;;;;;;;;;;5049579;28;20174;-54
2023/08/21 14:27:04;;;;;;;3.45;1.65;;;;;;;;;;5050380;28;20166;-53
2023/08/21 14:29:30;;;;;;;1.63;1.10;;;;;;;;;;5047925;28;20268;-53
2023/08/21 14:31:57;;;;;;;3.13;1.02;;;;;;;;;;5049983;28;20276;-52
2023/08/21 14:34:23;;;;;;;3.22;2.33;;;;;;;;;;5049777;28;20543;-52
2023/08/21 14:36:49;;;;;;;1.58;1.40;;;;;;;;;;5048707;28;20612;-50
2023/08/21 14:39:16;;;;;;;3.05;1.05;;;;;;;;;;5047180;28;20276;-50
2023/08/21 14:41:42;;;;;;;2.63;1.10;;;;;;;;;;5047248;28;20629;-50